sensor_id;sensor_type;location;lat;lon;timestamp;temperature;humidity
13072;DHT22;6602;58.934;11.166;2023-05-15T00:02:05;11.00;99.90
13072;DHT22;6602;58.934;11.166;2023-05-15T00:07:12;11.00;99.90
13072;DHT22;6602;58.934;11.166;2023-05-15T00:12:20;11.00;99.90
13072;DHT22;6602;58.934;11.166;2023-05-15T00:17:32;10.90;99.90
13072;DHT22;6602;58.934;11.166;2023-05-15T00:22:33;10.90;99.90
13072;DHT22;6602;58.934;11.166;2023-05-15T00:27:44;10.80;99.90
13072;DHT22;6602;58.934;11.166;2023-05-15T00:32:53;10.80;99.90
13072;DHT22;6602;58.934;11.166;2023-05-15T00:37:56;10.80;99.90
13072;DHT22;6602;58.934;11.166;2023-05-15T00:43:05;10.70;99.90
13072;DHT22;6602;58.934;11.166;2023-05-15T00:48:11;10.50;99.90
13072;DHT22;6602;58.934;11.166;2023-05-15T00:53:14;10.40;99.90
13072;DHT22;6602;58.934;11.166;2023-05-15T00:58:20;10.40;99.90
13072;DHT22;6602;58.934;11.166;2023-05-15T01:03:23;10.40;99.90
13072;DHT22;6602;58.934;11.166;2023-05-15T01:08:47;10.40;99.90
13072;DHT22;6602;58.934;11.166;2023-05-15T01:13:51;10.40;99.90
13072;DHT22;6602;58.934;11.166;2023-05-15T01:18:52;10.50;99.90
13072;DHT22;6602;58.934;11.166;2023-05-15T01:24:15;10.60;99.90
13072;DHT22;6602;58.934;11.166;2023-05-15T01:29:36;10.70;99.90
13072;DHT22;6602;58.934;11.166;2023-05-15T01:40:03;10.50;99.90
13072;DHT22;6602;58.934;11.166;2023-05-15T01:45:10;10.50;99.90
13072;DHT22;6602;58.934;11.166;2023-05-15T01:50:27;10.50;99.90
13072;DHT22;6602;58.934;11.166;2023-05-15T01:55:33;10.50;99.90
13072;DHT22;6602;58.934;11.166;2023-05-15T02:00:35;10.60;99.90
13072;DHT22;6602;58.934;11.166;2023-05-15T02:05:37;10.70;99.90
13072;DHT22;6602;58.934;11.166;2023-05-15T02:10:40;10.60;99.90
13072;DHT22;6602;58.934;11.166;2023-05-15T02:15:41;10.70;99.90
13072;DHT22;6602;58.934;11.166;2023-05-15T02:20:44;10.70;99.90
13072;DHT22;6602;58.934;11.166;2023-05-15T02:26:03;10.60;99.90
13072;DHT22;6602;58.934;11.166;2023-05-15T02:31:18;10.60;99.90
13072;DHT22;6602;58.934;11.166;2023-05-15T02:36:29;10.60;99.90
13072;DHT22;6602;58.934;11.166;2023-05-15T02:41:34;10.60;99.90
13072;DHT22;6602;58.934;11.166;2023-05-15T02:46:38;10.60;99.90
13072;DHT22;6602;58.934;11.166;2023-05-15T02:51:45;10.70;99.90
13072;DHT22;6602;58.934;11.166;2023-05-15T02:56:47;10.70;99.90
13072;DHT22;6602;58.934;11.166;2023-05-15T03:01:49;10.70;99.90
13072;DHT22;6602;58.934;11.166;2023-05-15T03:06:51;10.80;99.90
13072;DHT22;6602;58.934;11.166;2023-05-15T03:11:52;10.80;99.90
13072;DHT22;6602;58.934;11.166;2023-05-15T03:16:57;10.90;99.90
13072;DHT22;6602;58.934;11.166;2023-05-15T03:22:02;11.10;99.90
13072;DHT22;6602;58.934;11.166;2023-05-15T03:27:10;11.30;99.90
13072;DHT22;6602;58.934;11.166;2023-05-15T03:32:17;11.40;99.90
13072;DHT22;6602;58.934;11.166;2023-05-15T03:37:20;11.70;99.90
13072;DHT22;6602;58.934;11.166;2023-05-15T03:42:31;11.80;99.90
13072;DHT22;6602;58.934;11.166;2023-05-15T03:47:40;12.00;99.90
13072;DHT22;6602;58.934;11.166;2023-05-15T03:52:42;12.10;99.90
13072;DHT22;6602;58.934;11.166;2023-05-15T03:58:02;11.90;99.90
13072;DHT22;6602;58.934;11.166;2023-05-15T04:03:03;11.80;99.90
13072;DHT22;6602;58.934;11.166;2023-05-15T04:08:05;11.70;99.90
13072;DHT22;6602;58.934;11.166;2023-05-15T04:13:07;11.60;99.90
13072;DHT22;6602;58.934;11.166;2023-05-15T04:18:10;11.60;99.90
13072;DHT22;6602;58.934;11.166;2023-05-15T04:23:13;11.70;99.90
13072;DHT22;6602;58.934;11.166;2023-05-15T04:28:24;11.70;99.90
13072;DHT22;6602;58.934;11.166;2023-05-15T04:33:29;11.80;99.90
13072;DHT22;6602;58.934;11.166;2023-05-15T04:38:38;11.90;99.90
13072;DHT22;6602;58.934;11.166;2023-05-15T04:43:43;12.00;99.90
13072;DHT22;6602;58.934;11.166;2023-05-15T04:48:53;12.00;99.90
13072;DHT22;6602;58.934;11.166;2023-05-15T04:53:56;12.10;99.90
13072;DHT22;6602;58.934;11.166;2023-05-15T04:59:09;12.20;99.90
13072;DHT22;6602;58.934;11.166;2023-05-15T05:04:32;12.20;99.90
13072;DHT22;6602;58.934;11.166;2023-05-15T05:09:44;12.30;99.90
13072;DHT22;6602;58.934;11.166;2023-05-15T05:14:56;12.40;99.90
13072;DHT22;6602;58.934;11.166;2023-05-15T05:19:57;12.50;99.90
13072;DHT22;6602;58.934;11.166;2023-05-15T05:25:00;12.30;99.90
13072;DHT22;6602;58.934;11.166;2023-05-15T05:30:02;12.20;99.90
13072;DHT22;6602;58.934;11.166;2023-05-15T05:35:11;12.30;99.90
13072;DHT22;6602;58.934;11.166;2023-05-15T05:40:13;12.30;99.90
13072;DHT22;6602;58.934;11.166;2023-05-15T05:45:29;12.40;99.90
13072;DHT22;6602;58.934;11.166;2023-05-15T05:50:39;12.50;99.90
13072;DHT22;6602;58.934;11.166;2023-05-15T05:55:45;12.60;99.90
13072;DHT22;6602;58.934;11.166;2023-05-15T06:00:59;12.80;99.90
13072;DHT22;6602;58.934;11.166;2023-05-15T06:06:02;13.00;99.90
13072;DHT22;6602;58.934;11.166;2023-05-15T06:11:06;13.40;99.90
13072;DHT22;6602;58.934;11.166;2023-05-15T06:16:08;13.60;99.90
13072;DHT22;6602;58.934;11.166;2023-05-15T06:21:10;13.90;99.90
13072;DHT22;6602;58.934;11.166;2023-05-15T06:26:12;14.10;99.90
13072;DHT22;6602;58.934;11.166;2023-05-15T06:31:18;14.50;99.90
13072;DHT22;6602;58.934;11.166;2023-05-15T06:36:23;14.70;99.90
13072;DHT22;6602;58.934;11.166;2023-05-15T06:41:27;15.20;99.90
13072;DHT22;6602;58.934;11.166;2023-05-15T06:46:29;16.00;99.90
13072;DHT22;6602;58.934;11.166;2023-05-15T06:51:34;16.60;99.90
13072;DHT22;6602;58.934;11.166;2023-05-15T06:56:40;16.90;99.90
13072;DHT22;6602;58.934;11.166;2023-05-15T07:01:53;17.30;99.90
13072;DHT22;6602;58.934;11.166;2023-05-15T07:06:56;17.20;99.90
13072;DHT22;6602;58.934;11.166;2023-05-15T07:11:59;17.20;99.90
13072;DHT22;6602;58.934;11.166;2023-05-15T07:17:03;17.70;99.90
13072;DHT22;6602;58.934;11.166;2023-05-15T07:22:05;19.00;99.90
13072;DHT22;6602;58.934;11.166;2023-05-15T07:27:21;19.70;99.90
13072;DHT22;6602;58.934;11.166;2023-05-15T07:32:26;19.70;99.90
13072;DHT22;6602;58.934;11.166;2023-05-15T07:37:28;19.10;99.90
13072;DHT22;6602;58.934;11.166;2023-05-15T07:42:30;18.60;99.90
13072;DHT22;6602;58.934;11.166;2023-05-15T07:47:43;18.50;99.90
13072;DHT22;6602;58.934;11.166;2023-05-15T07:52:44;19.10;99.90
13072;DHT22;6602;58.934;11.166;2023-05-15T07:57:48;19.90;99.90
13072;DHT22;6602;58.934;11.166;2023-05-15T08:02:50;20.30;99.90
13072;DHT22;6602;58.934;11.166;2023-05-15T08:07:56;20.00;99.90
13072;DHT22;6602;58.934;11.166;2023-05-15T08:12:58;19.70;99.90
13072;DHT22;6602;58.934;11.166;2023-05-15T08:18:18;19.60;99.90
13072;DHT22;6602;58.934;11.166;2023-05-15T08:23:39;20.10;99.90
13072;DHT22;6602;58.934;11.166;2023-05-15T08:28:41;20.00;99.90
13072;DHT22;6602;58.934;11.166;2023-05-15T08:33:44;19.90;99.90
13072;DHT22;6602;58.934;11.166;2023-05-15T08:38:46;20.40;99.90
13072;DHT22;6602;58.934;11.166;2023-05-15T08:43:54;20.70;99.90
13072;DHT22;6602;58.934;11.166;2023-05-15T08:49:02;21.20;99.90
13072;DHT22;6602;58.934;11.166;2023-05-15T08:54:08;21.70;99.90
13072;DHT22;6602;58.934;11.166;2023-05-15T08:59:14;22.10;99.90
13072;DHT22;6602;58.934;11.166;2023-05-15T09:04:15;22.20;99.90
13072;DHT22;6602;58.934;11.166;2023-05-15T09:09:36;22.60;99.90
13072;DHT22;6602;58.934;11.166;2023-05-15T09:15:14;22.70;99.90
13072;DHT22;6602;58.934;11.166;2023-05-15T09:20:33;22.50;99.90
13072;DHT22;6602;58.934;11.166;2023-05-15T09:25:45;22.00;99.90
13072;DHT22;6602;58.934;11.166;2023-05-15T09:30:58;20.90;99.90
13072;DHT22;6602;58.934;11.166;2023-05-15T09:36:08;20.80;99.90
13072;DHT22;6602;58.934;11.166;2023-05-15T09:41:26;21.20;99.90
13072;DHT22;6602;58.934;11.166;2023-05-15T09:46:33;21.20;99.90
13072;DHT22;6602;58.934;11.166;2023-05-15T09:51:53;21.10;99.90
13072;DHT22;6602;58.934;11.166;2023-05-15T09:57:14;21.10;99.90
13072;DHT22;6602;58.934;11.166;2023-05-15T10:02:26;21.20;99.90
13072;DHT22;6602;58.934;11.166;2023-05-15T10:07:38;21.20;99.90
13072;DHT22;6602;58.934;11.166;2023-05-15T10:13:03;21.20;99.90
13072;DHT22;6602;58.934;11.166;2023-05-15T10:18:28;21.00;99.90
13072;DHT22;6602;58.934;11.166;2023-05-15T10:23:34;20.40;99.90
13072;DHT22;6602;58.934;11.166;2023-05-15T10:28:46;20.30;99.90
13072;DHT22;6602;58.934;11.166;2023-05-15T10:33:50;19.90;99.90
13072;DHT22;6602;58.934;11.166;2023-05-15T10:38:55;19.30;99.90
13072;DHT22;6602;58.934;11.166;2023-05-15T10:44:08;19.20;99.90
13072;DHT22;6602;58.934;11.166;2023-05-15T10:49:18;19.60;99.90
13072;DHT22;6602;58.934;11.166;2023-05-15T10:54:21;19.70;99.90
13072;DHT22;6602;58.934;11.166;2023-05-15T10:59:32;19.50;99.90
13072;DHT22;6602;58.934;11.166;2023-05-15T11:04:44;19.60;99.90
13072;DHT22;6602;58.934;11.166;2023-05-15T11:09:53;20.10;99.90
13072;DHT22;6602;58.934;11.166;2023-05-15T11:20:04;20.00;99.90
13072;DHT22;6602;58.934;11.166;2023-05-15T11:25:13;20.10;99.90
13072;DHT22;6602;58.934;11.166;2023-05-15T11:30:37;20.20;99.90
13072;DHT22;6602;58.934;11.166;2023-05-15T11:35:46;20.50;99.90
13072;DHT22;6602;58.934;11.166;2023-05-15T11:40:59;20.40;99.90
13072;DHT22;6602;58.934;11.166;2023-05-15T11:51:24;20.80;99.90
13072;DHT22;6602;58.934;11.166;2023-05-15T11:56:57;21.10;99.90
13072;DHT22;6602;58.934;11.166;2023-05-15T12:02:30;21.20;99.90
13072;DHT22;6602;58.934;11.166;2023-05-15T12:07:42;20.90;99.90
13072;DHT22;6602;58.934;11.166;2023-05-15T12:13:09;20.50;99.90
13072;DHT22;6602;58.934;11.166;2023-05-15T12:18:12;19.80;99.90
13072;DHT22;6602;58.934;11.166;2023-05-15T12:23:25;19.50;99.90
13072;DHT22;6602;58.934;11.166;2023-05-15T12:28:42;19.80;99.90
13072;DHT22;6602;58.934;11.166;2023-05-15T12:33:55;19.90;99.90
13072;DHT22;6602;58.934;11.166;2023-05-15T12:39:09;20.30;99.90
13072;DHT22;6602;58.934;11.166;2023-05-15T12:44:16;20.80;99.90
13072;DHT22;6602;58.934;11.166;2023-05-15T12:49:23;21.10;99.90
13072;DHT22;6602;58.934;11.166;2023-05-15T12:54:28;21.50;99.90
13072;DHT22;6602;58.934;11.166;2023-05-15T12:59:36;20.90;99.90
13072;DHT22;6602;58.934;11.166;2023-05-15T13:05:01;20.10;99.90
13072;DHT22;6602;58.934;11.166;2023-05-15T13:10:07;19.70;99.90
13072;DHT22;6602;58.934;11.166;2023-05-15T13:15:33;19.40;99.90
13072;DHT22;6602;58.934;11.166;2023-05-15T13:20:38;19.50;99.90
13072;DHT22;6602;58.934;11.166;2023-05-15T13:26:02;20.00;99.90
13072;DHT22;6602;58.934;11.166;2023-05-15T13:31:05;20.00;99.90
13072;DHT22;6602;58.934;11.166;2023-05-15T13:36:11;19.30;99.90
13072;DHT22;6602;58.934;11.166;2023-05-15T13:41:40;19.00;99.90
13072;DHT22;6602;58.934;11.166;2023-05-15T13:47:41;18.80;99.90
13072;DHT22;6602;58.934;11.166;2023-05-15T13:52:47;18.90;99.90
13072;DHT22;6602;58.934;11.166;2023-05-15T13:57:52;19.20;99.90
13072;DHT22;6602;58.934;11.166;2023-05-15T14:03:18;19.60;99.90
13072;DHT22;6602;58.934;11.166;2023-05-15T14:08:25;19.60;99.90
13072;DHT22;6602;58.934;11.166;2023-05-15T14:13:28;19.60;99.90
13072;DHT22;6602;58.934;11.166;2023-05-15T14:18:34;19.40;99.90
13072;DHT22;6602;58.934;11.166;2023-05-15T14:23:58;19.50;99.90
13072;DHT22;6602;58.934;11.166;2023-05-15T14:29:18;19.50;99.90
13072;DHT22;6602;58.934;11.166;2023-05-15T14:34:29;19.70;99.90
13072;DHT22;6602;58.934;11.166;2023-05-15T14:39:54;19.70;99.90
13072;DHT22;6602;58.934;11.166;2023-05-15T14:45:15;19.20;99.90
13072;DHT22;6602;58.934;11.166;2023-05-15T14:50:29;19.10;99.90
13072;DHT22;6602;58.934;11.166;2023-05-15T14:55:45;19.20;99.90
13072;DHT22;6602;58.934;11.166;2023-05-15T15:00:46;19.30;99.90
13072;DHT22;6602;58.934;11.166;2023-05-15T15:05:59;19.50;99.90
13072;DHT22;6602;58.934;11.166;2023-05-15T15:11:06;19.70;99.90
13072;DHT22;6602;58.934;11.166;2023-05-15T15:16:27;19.70;99.90
13072;DHT22;6602;58.934;11.166;2023-05-15T15:21:29;19.50;99.90
13072;DHT22;6602;58.934;11.166;2023-05-15T15:26:34;19.30;99.90
13072;DHT22;6602;58.934;11.166;2023-05-15T15:31:43;19.30;99.90
13072;DHT22;6602;58.934;11.166;2023-05-15T15:36:49;19.50;99.90
13072;DHT22;6602;58.934;11.166;2023-05-15T15:41:58;19.80;99.90
13072;DHT22;6602;58.934;11.166;2023-05-15T15:47:09;19.90;99.90
13072;DHT22;6602;58.934;11.166;2023-05-15T15:52:17;20.00;99.90
13072;DHT22;6602;58.934;11.166;2023-05-15T15:57:28;20.10;99.90
13072;DHT22;6602;58.934;11.166;2023-05-15T16:02:35;20.00;99.90
13072;DHT22;6602;58.934;11.166;2023-05-15T16:07:44;20.00;99.90
13072;DHT22;6602;58.934;11.166;2023-05-15T16:12:47;19.80;99.90
13072;DHT22;6602;58.934;11.166;2023-05-15T16:18:02;19.70;99.90
13072;DHT22;6602;58.934;11.166;2023-05-15T16:23:11;19.50;99.90
13072;DHT22;6602;58.934;11.166;2023-05-15T16:28:35;19.40;99.90
13072;DHT22;6602;58.934;11.166;2023-05-15T16:34:03;19.30;99.90
13072;DHT22;6602;58.934;11.166;2023-05-15T16:39:10;19.20;99.90
13072;DHT22;6602;58.934;11.166;2023-05-15T16:44:15;19.10;99.90
13072;DHT22;6602;58.934;11.166;2023-05-15T16:49:23;19.20;99.90
13072;DHT22;6602;58.934;11.166;2023-05-15T16:54:37;19.20;99.90
13072;DHT22;6602;58.934;11.166;2023-05-15T16:59:41;19.30;99.90
13072;DHT22;6602;58.934;11.166;2023-05-15T17:04:44;19.50;99.90
13072;DHT22;6602;58.934;11.166;2023-05-15T17:09:46;19.60;99.90
13072;DHT22;6602;58.934;11.166;2023-05-15T17:14:48;19.70;99.90
13072;DHT22;6602;58.934;11.166;2023-05-15T17:20:00;19.80;99.90
13072;DHT22;6602;58.934;11.166;2023-05-15T17:25:01;20.00;99.90
13072;DHT22;6602;58.934;11.166;2023-05-15T17:30:02;19.10;99.90
13072;DHT22;6602;58.934;11.166;2023-05-15T17:35:14;18.70;99.90
13072;DHT22;6602;58.934;11.166;2023-05-15T17:40:18;18.40;99.90
13072;DHT22;6602;58.934;11.166;2023-05-15T17:45:27;18.30;99.90
13072;DHT22;6602;58.934;11.166;2023-05-15T17:50:47;18.20;99.90
13072;DHT22;6602;58.934;11.166;2023-05-15T17:56:06;17.90;99.90
13072;DHT22;6602;58.934;11.166;2023-05-15T18:01:09;17.80;99.90
13072;DHT22;6602;58.934;11.166;2023-05-15T18:06:14;17.10;99.90
13072;DHT22;6602;58.934;11.166;2023-05-15T18:11:15;16.50;99.90
13072;DHT22;6602;58.934;11.166;2023-05-15T18:16:16;16.40;99.90
13072;DHT22;6602;58.934;11.166;2023-05-15T18:21:18;16.30;99.90
13072;DHT22;6602;58.934;11.166;2023-05-15T18:26:24;16.30;99.90
13072;DHT22;6602;58.934;11.166;2023-05-15T18:31:48;16.20;99.90
13072;DHT22;6602;58.934;11.166;2023-05-15T18:36:49;16.10;99.90
13072;DHT22;6602;58.934;11.166;2023-05-15T18:41:51;16.10;99.90
13072;DHT22;6602;58.934;11.166;2023-05-15T18:46:54;16.00;99.90
13072;DHT22;6602;58.934;11.166;2023-05-15T18:51:58;16.00;99.90
13072;DHT22;6602;58.934;11.166;2023-05-15T18:57:00;15.80;99.90
13072;DHT22;6602;58.934;11.166;2023-05-15T19:02:02;15.50;99.90
13072;DHT22;6602;58.934;11.166;2023-05-15T19:07:13;15.50;99.90
13072;DHT22;6602;58.934;11.166;2023-05-15T19:12:22;15.50;99.90
13072;DHT22;6602;58.934;11.166;2023-05-15T19:17:37;15.40;99.90
13072;DHT22;6602;58.934;11.166;2023-05-15T19:22:46;15.30;99.90
13072;DHT22;6602;58.934;11.166;2023-05-15T19:27:51;15.20;99.90
13072;DHT22;6602;58.934;11.166;2023-05-15T19:32:55;15.20;99.90
13072;DHT22;6602;58.934;11.166;2023-05-15T19:38:01;15.10;99.90
13072;DHT22;6602;58.934;11.166;2023-05-15T19:43:04;15.00;99.90
13072;DHT22;6602;58.934;11.166;2023-05-15T19:48:06;14.90;99.90
13072;DHT22;6602;58.934;11.166;2023-05-15T19:53:08;14.80;99.90
13072;DHT22;6602;58.934;11.166;2023-05-15T19:58:14;14.80;99.90
13072;DHT22;6602;58.934;11.166;2023-05-15T20:03:17;14.80;99.90
13072;DHT22;6602;58.934;11.166;2023-05-15T20:08:21;14.70;99.90
13072;DHT22;6602;58.934;11.166;2023-05-15T20:13:28;14.60;99.90
13072;DHT22;6602;58.934;11.166;2023-05-15T20:18:36;14.70;99.90
13072;DHT22;6602;58.934;11.166;2023-05-15T20:23:42;14.60;99.90
13072;DHT22;6602;58.934;11.166;2023-05-15T20:28:44;14.60;99.90
13072;DHT22;6602;58.934;11.166;2023-05-15T20:33:45;14.50;99.90
13072;DHT22;6602;58.934;11.166;2023-05-15T20:38:47;14.50;99.90
13072;DHT22;6602;58.934;11.166;2023-05-15T20:43:52;14.40;99.90
13072;DHT22;6602;58.934;11.166;2023-05-15T20:48:54;14.40;99.90
13072;DHT22;6602;58.934;11.166;2023-05-15T20:53:57;14.30;99.90
13072;DHT22;6602;58.934;11.166;2023-05-15T20:58:58;14.20;99.90
13072;DHT22;6602;58.934;11.166;2023-05-15T21:03:59;14.20;99.90
13072;DHT22;6602;58.934;11.166;2023-05-15T21:09:00;14.10;99.90
13072;DHT22;6602;58.934;11.166;2023-05-15T21:14:06;14.00;99.90
13072;DHT22;6602;58.934;11.166;2023-05-15T21:19:14;14.00;99.90
13072;DHT22;6602;58.934;11.166;2023-05-15T21:24:15;14.20;99.90
13072;DHT22;6602;58.934;11.166;2023-05-15T21:29:16;14.20;99.90
13072;DHT22;6602;58.934;11.166;2023-05-15T21:34:18;13.90;99.90
13072;DHT22;6602;58.934;11.166;2023-05-15T21:39:24;13.70;99.90
13072;DHT22;6602;58.934;11.166;2023-05-15T21:44:26;13.40;99.90
13072;DHT22;6602;58.934;11.166;2023-05-15T21:49:27;13.20;99.90
13072;DHT22;6602;58.934;11.166;2023-05-15T21:54:28;13.20;99.90
13072;DHT22;6602;58.934;11.166;2023-05-15T21:59:29;13.30;99.90
13072;DHT22;6602;58.934;11.166;2023-05-15T22:04:31;13.20;99.90
13072;DHT22;6602;58.934;11.166;2023-05-15T22:09:33;13.20;99.90
13072;DHT22;6602;58.934;11.166;2023-05-15T22:14:35;13.00;99.90
13072;DHT22;6602;58.934;11.166;2023-05-15T22:19:39;13.10;99.90
13072;DHT22;6602;58.934;11.166;2023-05-15T22:24:44;13.20;99.90
13072;DHT22;6602;58.934;11.166;2023-05-15T22:29:46;13.20;99.90
13072;DHT22;6602;58.934;11.166;2023-05-15T22:34:47;13.20;99.90
13072;DHT22;6602;58.934;11.166;2023-05-15T22:39:48;13.20;99.90
13072;DHT22;6602;58.934;11.166;2023-05-15T22:44:51;13.20;99.90
13072;DHT22;6602;58.934;11.166;2023-05-15T22:49:55;13.20;99.90
13072;DHT22;6602;58.934;11.166;2023-05-15T22:55:13;13.20;99.90
13072;DHT22;6602;58.934;11.166;2023-05-15T23:00:15;13.00;99.90
13072;DHT22;6602;58.934;11.166;2023-05-15T23:05:20;13.00;99.90
13072;DHT22;6602;58.934;11.166;2023-05-15T23:10:24;13.00;99.90
13072;DHT22;6602;58.934;11.166;2023-05-15T23:15:29;13.00;99.90
13072;DHT22;6602;58.934;11.166;2023-05-15T23:20:30;12.90;99.90
13072;DHT22;6602;58.934;11.166;2023-05-15T23:25:33;12.90;99.90
13072;DHT22;6602;58.934;11.166;2023-05-15T23:30:37;12.80;99.90
13072;DHT22;6602;58.934;11.166;2023-05-15T23:35:40;12.90;99.90
13072;DHT22;6602;58.934;11.166;2023-05-15T23:40:43;13.00;99.90
13072;DHT22;6602;58.934;11.166;2023-05-15T23:45:44;13.00;99.90
13072;DHT22;6602;58.934;11.166;2023-05-15T23:50:54;13.00;99.90
13072;DHT22;6602;58.934;11.166;2023-05-15T23:56:17;13.00;99.90
